Fridtjof Nansen — DGLS — position and weather

sailwx.info

Track history (hours):
 
Tides and Currents Weather Stations Pressure Air Temp Water Temp Dewpoint Dewpoint Depression Visibility Wind Speed Wind Dir Waves Ship Positions

Fridtjof Nansen (Germany)

Last reported at 2017-May-23 08:46 UTC. Time now 2017-May-23 08:59 UTC.
Position N 54°03' E 011°18'.

Length 48 m; draft 2.7 m.

Type: Sailing vessel. MMSI: 211364430.

Date/timePositionNaut miles runAvg speedWind from/ knotsBaromVisibWave heightAir tempDewpointWater temp
2017-May-23 08:46N 54°03' E 011°18'1 2.4
2017-May-23 08:29N 54°02' E 011°18'2 3.8
2017-May-23 08:00N 54°01' E 011°19'2 3.8
2017-May-23 07:30N 53°59' E 011°21'0 0.4
2017-May-23 06:59N 53°59' E 011°21'0 0.0
2017-May-23 06:29N 53°59' E 011°21'0 0.0
2017-May-23 05:59N 53°59' E 011°21'0 0.0
2017-May-23 05:29N 53°59' E 011°21'0 0.0
2017-May-23 04:59N 53°59' E 011°21'0 0.0
2017-May-23 04:29N 53°59' E 011°21'0 0.0
2017-May-23 03:59N 53°59' E 011°21'0 0.0
2017-May-23 02:59N 53°59' E 011°21'0 0.0
2017-May-23 02:26N 53°59' E 011°21'0 0.0
2017-May-23 01:59N 53°59' E 011°21'0 0.0
2017-May-23 01:29N 53°59' E 011°21'0 0.0
2017-May-23 00:59N 53°59' E 011°21'0 0.0
2017-May-23 00:26N 53°59' E 011°21'0 0.1
2017-May-22 23:59N 53°59' E 011°21'0 0.0
2017-May-22 23:29N 53°59' E 011°21'0 0.0
2017-May-22 22:59N 53°59' E 011°21'0 0.0
2017-May-22 22:29N 53°59' E 011°21'0 0.0
2017-May-22 21:59N 53°59' E 011°21'0 0.0
2017-May-22 21:29N 53°59' E 011°21'0 0.0
2017-May-22 20:59N 53°59' E 011°21'0 0.0
2017-May-22 20:29N 53°59' E 011°21'0 0.0
2017-May-22 19:59N 53°59' E 011°21'0 0.0
2017-May-22 19:29N 53°59' E 011°21'0 0.0
2017-May-22 18:59N 53°59' E 011°21'0 0.0
2017-May-22 18:29N 53°59' E 011°21'0 0.0
2017-May-22 17:59N 53°59' E 011°21'0 0.0
2017-May-22 17:29N 53°59' E 011°21'0 0.0
2017-May-22 16:59N 53°59' E 011°21'0 0.0
2017-May-22 16:29N 53°59' E 011°21'0 0.0
2017-May-22 15:59N 53°59' E 011°21'0 0.0
2017-May-22 15:29N 53°59' E 011°21'0 0.4
2017-May-22 15:01N 53°59' E 011°22'4 3.6
2017-May-22 14:01N 53°56' E 011°25'2 3.2
2017-May-22 13:30N 53°54' E 011°27'1 1.4
2017-May-22 12:58N 53°54' E 011°28'0 0.0
2017-May-22 12:04N 53°54' E 011°28'0 0.0
2017-May-22 11:58N 53°54' E 011°28'0 0.0
2017-May-22 11:25N 53°54' E 011°28'0 0.0
2017-May-22 10:58N 53°54' E 011°28'0 0.0
2017-May-22 10:28N 53°54' E 011°28'0 0.0
2017-May-22 09:43N 53°54' E 011°28'0 0.0
2017-May-22 08:13N 53°54' E 011°28'0 0.0
2017-May-22 06:31N 53°54' E 011°28'0 0.0
2017-May-22 05:40N 53°54' E 011°28'0 0.0
2017-May-22 05:22N 53°54' E 011°28'0 0.0
2017-May-22 04:52N 53°54' E 011°28'0 0.0
2017-May-22 04:19N 53°54' E 011°28'0 0.0
2017-May-22 03:55N 53°54' E 011°28'0 0.0
2017-May-22 03:25N 53°54' E 011°28'0 0.0
2017-May-22 02:55N 53°54' E 011°28'0 0.0
2017-May-22 02:25N 53°54' E 011°28'0 0.0
2017-May-22 01:55N 53°54' E 011°28'0 0.0
2017-May-22 01:19N 53°54' E 011°28'0 0.0
2017-May-22 00:55N 53°54' E 011°28'0 0.0
2017-May-22 00:25N 53°54' E 011°28'0 0.0
2017-May-21 08:54N 53°54' E 011°28'0 0.0
2017-May-21 08:30N 53°54' E 011°28'0 0.0
2017-May-21 07:58N 53°54' E 011°28'0 0.0
2017-May-21 07:30N 53°54' E 011°28'1 1.5
2017-May-21 07:01N 53°54' E 011°27'3 5.3
2017-May-21 06:30N 53°57' E 011°25'3 5.2
2017-May-21 06:00N 53°59' E 011°22'1 2.4
2017-May-21 05:30N 53°60' E 011°21'0 0.0
2017-May-21 05:00N 53°60' E 011°21'0 0.0
2017-May-21 04:27N 53°60' E 011°21'0 0.0
2017-May-21 04:00N 53°60' E 011°21'0 0.0
2017-May-21 03:30N 53°60' E 011°21'0 0.0
2017-May-21 03:00N 53°60' E 011°21'0 0.0
2017-May-21 02:30N 53°60' E 011°21'0 0.0
2017-May-21 02:00N 53°60' E 011°21'0 0.0
2017-May-21 01:30N 53°60' E 011°21'0 0.0
2017-May-21 01:00N 53°60' E 011°21'0 0.0
2017-May-21 00:30N 53°60' E 011°21'0 0.0
2017-May-21 00:00N 53°60' E 011°21'0 0.0
2017-May-20 23:30N 53°60' E 011°21'0 0.0
2017-May-20 23:00N 53°60' E 011°21'0 0.0
2017-May-20 22:09N 53°60' E 011°21'0 0.0
2017-May-20 22:00N 53°60' E 011°21'0 0.0
2017-May-20 21:18N 53°60' E 011°21'0 0.0
2017-May-20 21:00N 53°60' E 011°21'0 0.0
2017-May-20 20:30N 53°60' E 011°21'0 0.0
2017-May-20 20:00N 53°60' E 011°21'0 0.0
2017-May-20 19:30N 53°60' E 011°21'0 0.0
2017-May-20 19:00N 53°60' E 011°21'0 0.0
2017-May-20 18:30N 53°60' E 011°21'0 0.0
2017-May-20 18:00N 53°60' E 011°21'0 0.0
2017-May-20 17:30N 53°60' E 011°21'0 0.6
2017-May-20 17:00N 54°00' E 011°20'1 1.0
2017-May-20 16:30N 54°00' E 011°20'1 1.0
2017-May-20 16:00N 54°01' E 011°19'2 3.3
2017-May-20 15:30N 54°02' E 011°18'  
2017-May-17 11:46N 54°11' E 011°33'1 4.5
2017-May-17 11:30N 54°11' E 011°35'2 3.7
2017-May-17 11:00N 54°11' E 011°38'2 1.9
2017-May-17 09:46N 54°10' E 011°42'0 0.8
2017-May-17 09:29N 54°10' E 011°42'0 0.0
2017-May-17 08:59N 54°10' E 011°42'0 0.0
2017-May-17 08:29N 54°10' E 011°42'0 0.0
2017-May-17 07:59N 54°10' E 011°42'0 0.0
2017-May-17 06:44N 54°10' E 011°42'0 0.0
2017-May-17 06:29N 54°10' E 011°42'0 0.0
2017-May-17 04:59N 54°10' E 011°42'0 0.0
2017-May-17 04:29N 54°10' E 011°42'0 0.0
2017-May-17 03:59N 54°10' E 011°42'0 0.0
2017-May-17 02:29N 54°10' E 011°42'0 0.0
2017-May-17 01:59N 54°10' E 011°42'0 0.0
2017-May-17 01:29N 54°10' E 011°42'0 0.0
2017-May-17 00:59N 54°10' E 011°42'0 0.0
2017-May-16 23:29N 54°10' E 011°42'0 0.0
2017-May-16 22:59N 54°10' E 011°42'0 0.0
2017-May-16 21:44N 54°10' E 011°42'0 0.0
2017-May-16 21:29N 54°10' E 011°42'0 0.0
2017-May-16 20:59N 54°10' E 011°42'0 0.0
2017-May-16 19:59N 54°10' E 011°42'0 0.0
2017-May-16 19:29N 54°10' E 011°42'0 0.0
2017-May-16 18:59N 54°10' E 011°42'0 0.0
2017-May-16 17:32N 54°10' E 011°42'0 0.0
2017-May-16 17:29N 54°10' E 011°42'0 0.0
2017-May-16 16:59N 54°10' E 011°42'0 0.0
2017-May-16 16:29N 54°10' E 011°42'0 0.0
2017-May-16 15:59N 54°10' E 011°42'2 1.7
2017-May-16 14:58N 54°11' E 011°40'0 1.0
2017-May-16 14:30N 54°11' E 011°41'16 3.7
2017-May-16 10:11N 54°00' E 011°20'1 4.7
2017-May-16 10:00N 53°59' E 011°20'1 2.9
2017-May-16 09:29N 53°58' E 011°18'2 1.2
2017-May-16 08:10N 53°58' E 011°16'0 0.0
2017-May-16 07:58N 53°58' E 011°16'0 0.0
2017-May-16 07:25N 53°58' E 011°16'0 0.0
2017-May-16 06:55N 53°58' E 011°16'0 0.0
2017-May-16 06:28N 53°58' E 011°16'0 0.0
2017-May-16 05:58N 53°58' E 011°16'0 0.0
2017-May-16 05:28N 53°58' E 011°16'0 0.0
2017-May-16 04:58N 53°58' E 011°16'0 0.0
2017-May-16 04:25N 53°58' E 011°16'0 0.0
2017-May-16 03:58N 53°58' E 011°16'0 0.0
2017-May-16 03:28N 53°58' E 011°16'0 0.0
2017-May-16 02:34N 53°58' E 011°16'0 0.1
2017-May-16 02:28N 53°58' E 011°16'0 0.0
2017-May-16 01:58N 53°58' E 011°16'0 0.0
2017-May-16 01:01N 53°58' E 011°16'0 0.1
2017-May-16 00:55N 53°58' E 011°16'0 0.0
2017-May-16 00:28N 53°58' E 011°16'0 0.0
2017-May-15 18:25N 53°58' E 011°16'2 5.2
2017-May-15 18:00N 53°59' E 011°19'3 5.2
2017-May-15 17:30N 53°57' E 011°23'2 4.7
2017-May-15 17:01N 53°55' E 011°26'2 3.6
2017-May-15 16:30N 53°54' E 011°28'0 0.0
2017-May-15 15:58N 53°54' E 011°28'0 0.0
2017-May-15 15:28N 53°54' E 011°28'0 0.0
2017-May-15 14:58N 53°54' E 011°28'0 0.0
2017-May-15 13:58N 53°54' E 011°28'0 0.0
2017-May-15 13:28N 53°54' E 011°28'0 0.0
2017-May-15 12:58N 53°54' E 011°28'0 0.0
2017-May-15 12:28N 53°54' E 011°28'0 0.0
2017-May-15 12:01N 53°54' E 011°28'0 0.0
2017-May-15 11:31N 53°54' E 011°28'0 0.0
2017-May-15 11:01N 53°54' E 011°28'0 0.0
2017-May-15 10:27N 53°54' E 011°28'0 0.0
2017-May-15 10:00N 53°54' E 011°28'0 0.0
2017-May-15 09:30N 53°54' E 011°28'0 0.0
2017-May-15 09:00N 53°54' E 011°28'0 0.0
2017-May-15 08:30N 53°54' E 011°28'0 0.0
2017-May-15 08:00N 53°54' E 011°28'0 0.0
2017-May-15 07:30N 53°54' E 011°28'0 0.0
2017-May-15 07:00N 53°54' E 011°28'0 0.0
2017-May-15 06:30N 53°54' E 011°28'0 0.0
2017-May-15 05:57N 53°54' E 011°28'0 0.0
2017-May-15 05:30N 53°54' E 011°28'0 0.0
2017-May-15 05:00N 53°54' E 011°28'0 0.0
2017-May-15 04:30N 53°54' E 011°28'0 0.0
2017-May-15 04:00N 53°54' E 011°28'0 0.0
2017-May-15 03:30N 53°54' E 011°28'0 0.0
2017-May-15 03:00N 53°54' E 011°28'0 0.0
2017-May-15 02:30N 53°54' E 011°28'0 0.0
2017-May-15 02:00N 53°54' E 011°28'0 0.0
2017-May-15 01:30N 53°54' E 011°28'0 0.0
2017-May-15 01:00N 53°54' E 011°28'0 0.0
2017-May-15 00:30N 53°54' E 011°28'0 0.0
2017-May-15 00:00N 53°54' E 011°28'0 0.0
2017-May-14 23:30N 53°54' E 011°28'0 0.0
2017-May-14 23:00N 53°54' E 011°28'0 0.0
2017-May-14 22:30N 53°54' E 011°28'0 0.0
2017-May-14 22:00N 53°54' E 011°28'0 0.0
2017-May-14 21:30N 53°54' E 011°28'0 0.0
2017-May-14 20:54N 53°54' E 011°28'0 0.0
2017-May-14 20:30N 53°54' E 011°28'0 0.0
2017-May-14 20:00N 53°54' E 011°28'0 0.0
2017-May-14 19:30N 53°54' E 011°28'0 0.0
2017-May-14 19:00N 53°54' E 011°28'0 0.0
2017-May-14 18:30N 53°54' E 011°28'0 0.0
2017-May-14 18:00N 53°54' E 011°28'0 0.0
2017-May-14 17:30N 53°54' E 011°28'0 0.0
2017-May-14 17:00N 53°54' E 011°28'0 0.0
2017-May-14 16:30N 53°54' E 011°28'0 0.0
2017-May-14 16:00N 53°54' E 011°28'0 0.0
2017-May-14 15:30N 53°54' E 011°28'0 0.0
2017-May-14 15:00N 53°54' E 011°28'0 0.0
2017-May-14 14:30N 53°54' E 011°28'0 0.0
2017-May-14 13:27N 53°54' E 011°28'0 0.0
2017-May-14 13:00N 53°54' E 011°28'0 0.0
2017-May-14 12:30N 53°54' E 011°28'0 0.0
2017-May-14 12:00N 53°54' E 011°28'0 0.0
2017-May-14 11:30N 53°54' E 011°28'0 0.0
2017-May-14 11:00N 53°54' E 011°28'0 0.0
2017-May-14 10:30N 53°54' E 011°28'0 0.0
2017-May-14 09:57N 53°54' E 011°28'0 0.0
2017-May-14 09:30N 53°54' E 011°28'0 0.0
2017-May-14 09:00N 53°54' E 011°28'0 0.0
2017-May-14 08:30N 53°54' E 011°28'0 0.0
2017-May-14 07:57N 53°54' E 011°28'0 0.0
2017-May-14 07:30N 53°54' E 011°28'0 0.2
2017-May-14 07:00N 53°54' E 011°27'1 2.7
2017-May-14 06:30N 53°55' E 011°26'3 5.1
2017-May-14 06:00N 53°57' E 011°24'2 3.7
2017-May-14 05:27N 53°59' E 011°21'0 0.0
2017-May-14 05:00N 53°59' E 011°21'0 0.0
2017-May-14 04:30N 53°59' E 011°21'0 0.0
2017-May-14 03:57N 53°59' E 011°21'0 0.0
2017-May-14 03:30N 53°59' E 011°21'0 0.0
2017-May-14 03:00N 53°59' E 011°21'0 0.0
2017-May-14 02:24N 53°59' E 011°21'0 0.0
2017-May-14 02:00N 53°59' E 011°21'0 0.0
2017-May-14 01:29N 53°59' E 011°21'0 0.0
2017-May-14 00:59N 53°59' E 011°21'0 0.0
2017-May-14 00:26N 53°59' E 011°21'0 0.1
2017-May-13 23:59N 53°59' E 011°21'0 0.0
2017-May-13 23:29N 53°59' E 011°21'0 0.0
2017-May-13 22:59N 53°59' E 011°21'0 0.0
2017-May-13 22:29N 53°59' E 011°21'0 0.0
2017-May-13 21:59N 53°59' E 011°21'0 0.0
2017-May-13 21:29N 53°59' E 011°21'0 0.0
2017-May-13 20:59N 53°59' E 011°21'0 0.0
2017-May-13 20:29N 53°59' E 011°21'0 0.0
2017-May-13 19:59N 53°59' E 011°21'0 0.0
2017-May-13 19:29N 53°59' E 011°21'0 0.0
2017-May-13 18:59N 53°59' E 011°21'0 0.0
2017-May-13 18:29N 53°59' E 011°21'0 0.0
2017-May-13 17:59N 53°59' E 011°21'0 0.0
2017-May-13 17:29N 53°59' E 011°21'0 0.0
2017-May-13 16:59N 53°59' E 011°21'0 0.0
2017-May-13 16:29N 53°59' E 011°21'1 1.0
2017-May-13 15:57N 53°59' E 011°21'1 2.8
2017-May-13 15:30N 54°00' E 011°20'1 2.6
2017-May-13 15:00N 54°01' E 011°19'  
Track history (hours):
 
Tides and Currents Weather Stations Pressure Air Temp Water Temp Dewpoint Dewpoint Depression Visibility Wind Speed Wind Dir Waves Ship Positions

Fridtjof Nansen (Germany)

Last reported at 2017-May-23 08:46 UTC. Time now 2017-May-23 08:59 UTC.
Position N 54°03' E 011°18'.

Length 48 m; draft 2.7 m.

Type: Sailing vessel. MMSI: 211364430.

Date/timePositionNaut miles runAvg speedWind from/ knotsBaromVisibWave heightAir tempDewpointWater temp
2017-May-23 08:46N 54°03' E 011°18'1 2.4
2017-May-23 08:29N 54°02' E 011°18'2 3.8
2017-May-23 08:00N 54°01' E 011°19'2 3.8
2017-May-23 07:30N 53°59' E 011°21'0 0.4
2017-May-23 06:59N 53°59' E 011°21'0 0.0
2017-May-23 06:29N 53°59' E 011°21'0 0.0
2017-May-23 05:59N 53°59' E 011°21'0 0.0
2017-May-23 05:29N 53°59' E 011°21'0 0.0
2017-May-23 04:59N 53°59' E 011°21'0 0.0
2017-May-23 04:29N 53°59' E 011°21'0 0.0
2017-May-23 03:59N 53°59' E 011°21'0 0.0
2017-May-23 02:59N 53°59' E 011°21'0 0.0
2017-May-23 02:26N 53°59' E 011°21'0 0.0
2017-May-23 01:59N 53°59' E 011°21'0 0.0
2017-May-23 01:29N 53°59' E 011°21'0 0.0
2017-May-23 00:59N 53°59' E 011°21'0 0.0
2017-May-23 00:26N 53°59' E 011°21'0 0.1
2017-May-22 23:59N 53°59' E 011°21'0 0.0
2017-May-22 23:29N 53°59' E 011°21'0 0.0
2017-May-22 22:59N 53°59' E 011°21'0 0.0
2017-May-22 22:29N 53°59' E 011°21'0 0.0
2017-May-22 21:59N 53°59' E 011°21'0 0.0
2017-May-22 21:29N 53°59' E 011°21'0 0.0
2017-May-22 20:59N 53°59' E 011°21'0 0.0
2017-May-22 20:29N 53°59' E 011°21'0 0.0
2017-May-22 19:59N 53°59' E 011°21'0 0.0
2017-May-22 19:29N 53°59' E 011°21'0 0.0
2017-May-22 18:59N 53°59' E 011°21'0 0.0
2017-May-22 18:29N 53°59' E 011°21'0 0.0
2017-May-22 17:59N 53°59' E 011°21'0 0.0
2017-May-22 17:29N 53°59' E 011°21'0 0.0
2017-May-22 16:59N 53°59' E 011°21'0 0.0
2017-May-22 16:29N 53°59' E 011°21'0 0.0
2017-May-22 15:59N 53°59' E 011°21'0 0.0
2017-May-22 15:29N 53°59' E 011°21'0 0.4
2017-May-22 15:01N 53°59' E 011°22'4 3.6
2017-May-22 14:01N 53°56' E 011°25'2 3.2
2017-May-22 13:30N 53°54' E 011°27'1 1.4
2017-May-22 12:58N 53°54' E 011°28'0 0.0
2017-May-22 12:04N 53°54' E 011°28'0 0.0
2017-May-22 11:58N 53°54' E 011°28'0 0.0
2017-May-22 11:25N 53°54' E 011°28'0 0.0
2017-May-22 10:58N 53°54' E 011°28'0 0.0
2017-May-22 10:28N 53°54' E 011°28'0 0.0
2017-May-22 09:43N 53°54' E 011°28'0 0.0
2017-May-22 08:13N 53°54' E 011°28'0 0.0
2017-May-22 06:31N 53°54' E 011°28'0 0.0
2017-May-22 05:40N 53°54' E 011°28'0 0.0
2017-May-22 05:22N 53°54' E 011°28'0 0.0
2017-May-22 04:52N 53°54' E 011°28'0 0.0
2017-May-22 04:19N 53°54' E 011°28'0 0.0
2017-May-22 03:55N 53°54' E 011°28'0 0.0
2017-May-22 03:25N 53°54' E 011°28'0 0.0
2017-May-22 02:55N 53°54' E 011°28'0 0.0
2017-May-22 02:25N 53°54' E 011°28'0 0.0
2017-May-22 01:55N 53°54' E 011°28'0 0.0
2017-May-22 01:19N 53°54' E 011°28'0 0.0
2017-May-22 00:55N 53°54' E 011°28'0 0.0
2017-May-22 00:25N 53°54' E 011°28'0 0.0
2017-May-21 08:54N 53°54' E 011°28'0 0.0
2017-May-21 08:30N 53°54' E 011°28'0 0.0
2017-May-21 07:58N 53°54' E 011°28'0 0.0
2017-May-21 07:30N 53°54' E 011°28'1 1.5
2017-May-21 07:01N 53°54' E 011°27'3 5.3
2017-May-21 06:30N 53°57' E 011°25'3 5.2
2017-May-21 06:00N 53°59' E 011°22'1 2.4
2017-May-21 05:30N 53°60' E 011°21'0 0.0
2017-May-21 05:00N 53°60' E 011°21'0 0.0
2017-May-21 04:27N 53°60' E 011°21'0 0.0
2017-May-21 04:00N 53°60' E 011°21'0 0.0
2017-May-21 03:30N 53°60' E 011°21'0 0.0
2017-May-21 03:00N 53°60' E 011°21'0 0.0
2017-May-21 02:30N 53°60' E 011°21'0 0.0
2017-May-21 02:00N 53°60' E 011°21'0 0.0
2017-May-21 01:30N 53°60' E 011°21'0 0.0
2017-May-21 01:00N 53°60' E 011°21'0 0.0
2017-May-21 00:30N 53°60' E 011°21'0 0.0
2017-May-21 00:00N 53°60' E 011°21'0 0.0
2017-May-20 23:30N 53°60' E 011°21'0 0.0
2017-May-20 23:00N 53°60' E 011°21'0 0.0
2017-May-20 22:09N 53°60' E 011°21'0 0.0
2017-May-20 22:00N 53°60' E 011°21'0 0.0
2017-May-20 21:18N 53°60' E 011°21'0 0.0
2017-May-20 21:00N 53°60' E 011°21'0 0.0
2017-May-20 20:30N 53°60' E 011°21'0 0.0
2017-May-20 20:00N 53°60' E 011°21'0 0.0
2017-May-20 19:30N 53°60' E 011°21'0 0.0
2017-May-20 19:00N 53°60' E 011°21'0 0.0
2017-May-20 18:30N 53°60' E 011°21'0 0.0
2017-May-20 18:00N 53°60' E 011°21'0 0.0
2017-May-20 17:30N 53°60' E 011°21'0 0.6
2017-May-20 17:00N 54°00' E 011°20'1 1.0
2017-May-20 16:30N 54°00' E 011°20'1 1.0
2017-May-20 16:00N 54°01' E 011°19'2 3.3
2017-May-20 15:30N 54°02' E 011°18'  
2017-May-17 11:46N 54°11' E 011°33'1 4.5
2017-May-17 11:30N 54°11' E 011°35'2 3.7
2017-May-17 11:00N 54°11' E 011°38'2 1.9
2017-May-17 09:46N 54°10' E 011°42'0 0.8
2017-May-17 09:29N 54°10' E 011°42'0 0.0
2017-May-17 08:59N 54°10' E 011°42'0 0.0
2017-May-17 08:29N 54°10' E 011°42'0 0.0
2017-May-17 07:59N 54°10' E 011°42'0 0.0
2017-May-17 06:44N 54°10' E 011°42'0 0.0
2017-May-17 06:29N 54°10' E 011°42'0 0.0
2017-May-17 04:59N 54°10' E 011°42'0 0.0
2017-May-17 04:29N 54°10' E 011°42'0 0.0
2017-May-17 03:59N 54°10' E 011°42'0 0.0
2017-May-17 02:29N 54°10' E 011°42'0 0.0
2017-May-17 01:59N 54°10' E 011°42'0 0.0
2017-May-17 01:29N 54°10' E 011°42'0 0.0
2017-May-17 00:59N 54°10' E 011°42'0 0.0
2017-May-16 23:29N 54°10' E 011°42'0 0.0
2017-May-16 22:59N 54°10' E 011°42'0 0.0
2017-May-16 21:44N 54°10' E 011°42'0 0.0
2017-May-16 21:29N 54°10' E 011°42'0 0.0
2017-May-16 20:59N 54°10' E 011°42'0 0.0
2017-May-16 19:59N 54°10' E 011°42'0 0.0
2017-May-16 19:29N 54°10' E 011°42'0 0.0
2017-May-16 18:59N 54°10' E 011°42'0 0.0
2017-May-16 17:32N 54°10' E 011°42'0 0.0
2017-May-16 17:29N 54°10' E 011°42'0 0.0
2017-May-16 16:59N 54°10' E 011°42'0 0.0
2017-May-16 16:29N 54°10' E 011°42'0 0.0
2017-May-16 15:59N 54°10' E 011°42'2 1.7
2017-May-16 14:58N 54°11' E 011°40'0 1.0
2017-May-16 14:30N 54°11' E 011°41'16 3.7
2017-May-16 10:11N 54°00' E 011°20'1 4.7
2017-May-16 10:00N 53°59' E 011°20'1 2.9
2017-May-16 09:29N 53°58' E 011°18'2 1.2
2017-May-16 08:10N 53°58' E 011°16'0 0.0
2017-May-16 07:58N 53°58' E 011°16'0 0.0
2017-May-16 07:25N 53°58' E 011°16'0 0.0
2017-May-16 06:55N 53°58' E 011°16'0 0.0
2017-May-16 06:28N 53°58' E 011°16'0 0.0
2017-May-16 05:58N 53°58' E 011°16'0 0.0
2017-May-16 05:28N 53°58' E 011°16'0 0.0
2017-May-16 04:58N 53°58' E 011°16'0 0.0
2017-May-16 04:25N 53°58' E 011°16'0 0.0
2017-May-16 03:58N 53°58' E 011°16'0 0.0
2017-May-16 03:28N 53°58' E 011°16'0 0.0
2017-May-16 02:34N 53°58' E 011°16'0 0.1
2017-May-16 02:28N 53°58' E 011°16'0 0.0
2017-May-16 01:58N 53°58' E 011°16'0 0.0
2017-May-16 01:01N 53°58' E 011°16'0 0.1
2017-May-16 00:55N 53°58' E 011°16'0 0.0
2017-May-16 00:28N 53°58' E 011°16'0 0.0
2017-May-15 18:25N 53°58' E 011°16'2 5.2
2017-May-15 18:00N 53°59' E 011°19'3 5.2
2017-May-15 17:30N 53°57' E 011°23'2 4.7
2017-May-15 17:01N 53°55' E 011°26'2 3.6
2017-May-15 16:30N 53°54' E 011°28'0 0.0
2017-May-15 15:58N 53°54' E 011°28'0 0.0
2017-May-15 15:28N 53°54' E 011°28'0 0.0
2017-May-15 14:58N 53°54' E 011°28'0 0.0
2017-May-15 13:58N 53°54' E 011°28'0 0.0
2017-May-15 13:28N 53°54' E 011°28'0 0.0
2017-May-15 12:58N 53°54' E 011°28'0 0.0
2017-May-15 12:28N 53°54' E 011°28'0 0.0
2017-May-15 12:01N 53°54' E 011°28'0 0.0
2017-May-15 11:31N 53°54' E 011°28'0 0.0
2017-May-15 11:01N 53°54' E 011°28'0 0.0
2017-May-15 10:27N 53°54' E 011°28'0 0.0
2017-May-15 10:00N 53°54' E 011°28'0 0.0
2017-May-15 09:30N 53°54' E 011°28'0 0.0
2017-May-15 09:00N 53°54' E 011°28'0 0.0
2017-May-15 08:30N 53°54' E 011°28'0 0.0
2017-May-15 08:00N 53°54' E 011°28'0 0.0
2017-May-15 07:30N 53°54' E 011°28'0 0.0
2017-May-15 07:00N 53°54' E 011°28'0 0.0
2017-May-15 06:30N 53°54' E 011°28'0 0.0
2017-May-15 05:57N 53°54' E 011°28'0 0.0
2017-May-15 05:30N 53°54' E 011°28'0 0.0
2017-May-15 05:00N 53°54' E 011°28'0 0.0
2017-May-15 04:30N 53°54' E 011°28'0 0.0
2017-May-15 04:00N 53°54' E 011°28'0 0.0
2017-May-15 03:30N 53°54' E 011°28'0 0.0
2017-May-15 03:00N 53°54' E 011°28'0 0.0
2017-May-15 02:30N 53°54' E 011°28'0 0.0
2017-May-15 02:00N 53°54' E 011°28'0 0.0
2017-May-15 01:30N 53°54' E 011°28'0 0.0
2017-May-15 01:00N 53°54' E 011°28'0 0.0
2017-May-15 00:30N 53°54' E 011°28'0 0.0
2017-May-15 00:00N 53°54' E 011°28'0 0.0
2017-May-14 23:30N 53°54' E 011°28'0 0.0
2017-May-14 23:00N 53°54' E 011°28'0 0.0
2017-May-14 22:30N 53°54' E 011°28'0 0.0
2017-May-14 22:00N 53°54' E 011°28'0 0.0
2017-May-14 21:30N 53°54' E 011°28'0 0.0
2017-May-14 20:54N 53°54' E 011°28'0 0.0
2017-May-14 20:30N 53°54' E 011°28'0 0.0
2017-May-14 20:00N 53°54' E 011°28'0 0.0
2017-May-14 19:30N 53°54' E 011°28'0 0.0
2017-May-14 19:00N 53°54' E 011°28'0 0.0
2017-May-14 18:30N 53°54' E 011°28'0 0.0
2017-May-14 18:00N 53°54' E 011°28'0 0.0
2017-May-14 17:30N 53°54' E 011°28'0 0.0
2017-May-14 17:00N 53°54' E 011°28'0 0.0
2017-May-14 16:30N 53°54' E 011°28'0 0.0
2017-May-14 16:00N 53°54' E 011°28'0 0.0
2017-May-14 15:30N 53°54' E 011°28'0 0.0
2017-May-14 15:00N 53°54' E 011°28'0 0.0
2017-May-14 14:30N 53°54' E 011°28'0 0.0
2017-May-14 13:27N 53°54' E 011°28'0 0.0
2017-May-14 13:00N 53°54' E 011°28'0 0.0
2017-May-14 12:30N 53°54' E 011°28'0 0.0
2017-May-14 12:00N 53°54' E 011°28'0 0.0
2017-May-14 11:30N 53°54' E 011°28'0 0.0
2017-May-14 11:00N 53°54' E 011°28'0 0.0
2017-May-14 10:30N 53°54' E 011°28'0 0.0
2017-May-14 09:57N 53°54' E 011°28'0 0.0
2017-May-14 09:30N 53°54' E 011°28'0 0.0
2017-May-14 09:00N 53°54' E 011°28'0 0.0
2017-May-14 08:30N 53°54' E 011°28'0 0.0
2017-May-14 07:57N 53°54' E 011°28'0 0.0
2017-May-14 07:30N 53°54' E 011°28'0 0.2
2017-May-14 07:00N 53°54' E 011°27'1 2.7
2017-May-14 06:30N 53°55' E 011°26'3 5.1
2017-May-14 06:00N 53°57' E 011°24'2 3.7
2017-May-14 05:27N 53°59' E 011°21'0 0.0
2017-May-14 05:00N 53°59' E 011°21'0 0.0
2017-May-14 04:30N 53°59' E 011°21'0 0.0
2017-May-14 03:57N 53°59' E 011°21'0 0.0
2017-May-14 03:30N 53°59' E 011°21'0 0.0
2017-May-14 03:00N 53°59' E 011°21'0 0.0
2017-May-14 02:24N 53°59' E 011°21'0 0.0
2017-May-14 02:00N 53°59' E 011°21'0 0.0
2017-May-14 01:29N 53°59' E 011°21'0 0.0
2017-May-14 00:59N 53°59' E 011°21'0 0.0
2017-May-14 00:26N 53°59' E 011°21'0 0.1
2017-May-13 23:59N 53°59' E 011°21'0 0.0
2017-May-13 23:29N 53°59' E 011°21'0 0.0
2017-May-13 22:59N 53°59' E 011°21'0 0.0
2017-May-13 22:29N 53°59' E 011°21'0 0.0
2017-May-13 21:59N 53°59' E 011°21'0 0.0
2017-May-13 21:29N 53°59' E 011°21'0 0.0
2017-May-13 20:59N 53°59' E 011°21'0 0.0
2017-May-13 20:29N 53°59' E 011°21'0 0.0
2017-May-13 19:59N 53°59' E 011°21'0 0.0
2017-May-13 19:29N 53°59' E 011°21'0 0.0
2017-May-13 18:59N 53°59' E 011°21'0 0.0
2017-May-13 18:29N 53°59' E 011°21'0 0.0
2017-May-13 17:59N 53°59' E 011°21'0 0.0
2017-May-13 17:29N 53°59' E 011°21'0 0.0
2017-May-13 16:59N 53°59' E 011°21'0 0.0
2017-May-13 16:29N 53°59' E 011°21'1 1.0
2017-May-13 15:57N 53°59' E 011°21'1 2.8
2017-May-13 15:30N 54°00' E 011°20'1 2.6
2017-May-13 15:00N 54°01' E 011°19'  

Dump ship's entire track history